Ava, New York
Current Conditions -  °F | °C
As of 10:53 AM on Friday 21 Nov 2014 (Local Time) from KRME Reporting Station
Scattered Clouds Scattered Clouds  
Wind Chill: 12°   Ceiling: Unl
Heat Index: 24°   Visibility: 10mi
Dew Point: 16°   Wind: 13mph
Humidity: 71%   Direction: 280°W
Pressure: 30.3"   Gusts: NA
Location:  43.42°N, 75.48°W
Report Text: KRME 211553Z 28011KT 10SM SCT033 M04/M09 A3030 RMK AO2 SLP267 T10441089
Loading
Personal Weather Stations






























Interactive Weather Map New forecast layout! Learn more

10-Day Weather Forecast

Advertisements
Track Severe Weather on mobile